sensor_id;sensor_type;location;lat;lon;timestamp;P1;durP1;ratioP1;P2;durP2;ratioP2
11829;SDS011;5972;42.134;24.718;2023-03-07T00:00:04;31.93;;;20.10;;
11829;SDS011;5972;42.134;24.718;2023-03-07T00:02:32;25.87;;;18.63;;
11829;SDS011;5972;42.134;24.718;2023-03-07T00:04:59;30.47;;;18.87;;
11829;SDS011;5972;42.134;24.718;2023-03-07T00:07:26;29.37;;;19.27;;
11829;SDS011;5972;42.134;24.718;2023-03-07T00:09:54;28.53;;;19.73;;
11829;SDS011;5972;42.134;24.718;2023-03-07T00:12:21;30.57;;;20.83;;
11829;SDS011;5972;42.134;24.718;2023-03-07T00:14:47;32.87;;;19.80;;
11829;SDS011;5972;42.134;24.718;2023-03-07T00:17:14;32.33;;;20.43;;
11829;SDS011;5972;42.134;24.718;2023-03-07T00:19:41;32.47;;;20.67;;
11829;SDS011;5972;42.134;24.718;2023-03-07T00:22:08;31.73;;;20.57;;
11829;SDS011;5972;42.134;24.718;2023-03-07T00:24:35;33.53;;;20.03;;
11829;SDS011;5972;42.134;24.718;2023-03-07T00:27:04;31.83;;;20.87;;
11829;SDS011;5972;42.134;24.718;2023-03-07T00:29:30;31.90;;;19.73;;
11829;SDS011;5972;42.134;24.718;2023-03-07T00:31:57;33.37;;;20.30;;
11829;SDS011;5972;42.134;24.718;2023-03-07T00:34:24;34.00;;;20.80;;
11829;SDS011;5972;42.134;24.718;2023-03-07T00:36:51;35.57;;;19.87;;
11829;SDS011;5972;42.134;24.718;2023-03-07T00:39:18;30.67;;;19.13;;
11829;SDS011;5972;42.134;24.718;2023-03-07T00:41:45;28.83;;;19.37;;
11829;SDS011;5972;42.134;24.718;2023-03-07T00:44:13;27.60;;;18.73;;
11829;SDS011;5972;42.134;24.718;2023-03-07T00:46:40;28.83;;;19.00;;
11829;SDS011;5972;42.134;24.718;2023-03-07T00:49:06;28.77;;;19.33;;
11829;SDS011;5972;42.134;24.718;2023-03-07T00:51:33;30.23;;;18.40;;
11829;SDS011;5972;42.134;24.718;2023-03-07T00:54:00;34.00;;;21.40;;
11829;SDS011;5972;42.134;24.718;2023-03-07T00:56:26;30.20;;;20.33;;
11829;SDS011;5972;42.134;24.718;2023-03-07T00:58:53;31.27;;;21.67;;
11829;SDS011;5972;42.134;24.718;2023-03-07T01:01:22;37.73;;;21.07;;
11829;SDS011;5972;42.134;24.718;2023-03-07T01:03:50;31.50;;;21.67;;
11829;SDS011;5972;42.134;24.718;2023-03-07T01:06:18;31.73;;;19.87;;
11829;SDS011;5972;42.134;24.718;2023-03-07T01:08:47;34.67;;;21.63;;
11829;SDS011;5972;42.134;24.718;2023-03-07T01:11:14;31.23;;;19.47;;
11829;SDS011;5972;42.134;24.718;2023-03-07T01:13:41;28.83;;;18.67;;
11829;SDS011;5972;42.134;24.718;2023-03-07T01:16:09;25.73;;;17.70;;
11829;SDS011;5972;42.134;24.718;2023-03-07T01:18:38;26.57;;;17.57;;
11829;SDS011;5972;42.134;24.718;2023-03-07T01:21:12;26.97;;;17.90;;
11829;SDS011;5972;42.134;24.718;2023-03-07T01:23:41;33.00;;;18.93;;
11829;SDS011;5972;42.134;24.718;2023-03-07T01:26:11;30.03;;;17.83;;
11829;SDS011;5972;42.134;24.718;2023-03-07T01:28:38;29.10;;;19.73;;
11829;SDS011;5972;42.134;24.718;2023-03-07T01:31:05;27.90;;;18.93;;
11829;SDS011;5972;42.134;24.718;2023-03-07T01:33:32;27.70;;;19.30;;
11829;SDS011;5972;42.134;24.718;2023-03-07T01:36:00;28.57;;;19.20;;
11829;SDS011;5972;42.134;24.718;2023-03-07T01:38:27;25.97;;;18.70;;
11829;SDS011;5972;42.134;24.718;2023-03-07T01:40:58;30.40;;;18.50;;
11829;SDS011;5972;42.134;24.718;2023-03-07T01:43:25;28.77;;;18.57;;
11829;SDS011;5972;42.134;24.718;2023-03-07T01:49:03;28.73;;;18.73;;
11829;SDS011;5972;42.134;24.718;2023-03-07T01:51:35;26.03;;;18.30;;
11829;SDS011;5972;42.134;24.718;2023-03-07T01:54:03;26.57;;;18.80;;
11829;SDS011;5972;42.134;24.718;2023-03-07T01:56:34;24.13;;;16.43;;
11829;SDS011;5972;42.134;24.718;2023-03-07T01:59:01;23.50;;;17.27;;
11829;SDS011;5972;42.134;24.718;2023-03-07T02:01:29;24.23;;;16.80;;
11829;SDS011;5972;42.134;24.718;2023-03-07T02:03:58;27.70;;;17.13;;
11829;SDS011;5972;42.134;24.718;2023-03-07T02:06:28;24.70;;;16.10;;
11829;SDS011;5972;42.134;24.718;2023-03-07T02:09:01;24.33;;;15.87;;
11829;SDS011;5972;42.134;24.718;2023-03-07T02:11:30;24.00;;;16.53;;
11829;SDS011;5972;42.134;24.718;2023-03-07T02:13:57;21.10;;;15.73;;
11829;SDS011;5972;42.134;24.718;2023-03-07T02:16:24;21.80;;;15.90;;
11829;SDS011;5972;42.134;24.718;2023-03-07T02:18:51;20.30;;;16.57;;
11829;SDS011;5972;42.134;24.718;2023-03-07T02:21:21;23.47;;;16.47;;
11829;SDS011;5972;42.134;24.718;2023-03-07T02:23:56;22.70;;;16.23;;
11829;SDS011;5972;42.134;24.718;2023-03-07T02:26:43;23.07;;;15.93;;
11829;SDS011;5972;42.134;24.718;2023-03-07T02:29:10;22.97;;;16.53;;
11829;SDS011;5972;42.134;24.718;2023-03-07T02:31:38;23.83;;;16.33;;
11829;SDS011;5972;42.134;24.718;2023-03-07T02:34:16;20.77;;;15.53;;
11829;SDS011;5972;42.134;24.718;2023-03-07T02:36:44;21.50;;;15.97;;
11829;SDS011;5972;42.134;24.718;2023-03-07T02:39:12;23.60;;;17.43;;
11829;SDS011;5972;42.134;24.718;2023-03-07T02:41:39;23.40;;;17.47;;
11829;SDS011;5972;42.134;24.718;2023-03-07T02:44:07;24.17;;;17.47;;
11829;SDS011;5972;42.134;24.718;2023-03-07T02:46:34;23.73;;;17.67;;
11829;SDS011;5972;42.134;24.718;2023-03-07T02:49:01;22.87;;;17.23;;
11829;SDS011;5972;42.134;24.718;2023-03-07T02:51:27;26.23;;;17.83;;
11829;SDS011;5972;42.134;24.718;2023-03-07T02:53:54;24.63;;;17.97;;
11829;SDS011;5972;42.134;24.718;2023-03-07T02:56:21;27.10;;;17.93;;
11829;SDS011;5972;42.134;24.718;2023-03-07T02:58:48;24.23;;;18.10;;
11829;SDS011;5972;42.134;24.718;2023-03-07T03:01:16;27.60;;;19.67;;
11829;SDS011;5972;42.134;24.718;2023-03-07T03:03:43;29.43;;;20.03;;
11829;SDS011;5972;42.134;24.718;2023-03-07T03:06:09;29.43;;;19.50;;
11829;SDS011;5972;42.134;24.718;2023-03-07T03:08:36;24.37;;;17.87;;
11829;SDS011;5972;42.134;24.718;2023-03-07T03:11:03;24.90;;;18.30;;
11829;SDS011;5972;42.134;24.718;2023-03-07T03:13:30;26.07;;;17.60;;
11829;SDS011;5972;42.134;24.718;2023-03-07T03:15:57;28.13;;;19.37;;
11829;SDS011;5972;42.134;24.718;2023-03-07T03:18:26;24.33;;;18.00;;
11829;SDS011;5972;42.134;24.718;2023-03-07T03:20:53;25.03;;;18.30;;
11829;SDS011;5972;42.134;24.718;2023-03-07T03:23:20;23.87;;;17.23;;
11829;SDS011;5972;42.134;24.718;2023-03-07T03:25:55;25.27;;;17.27;;
11829;SDS011;5972;42.134;24.718;2023-03-07T03:28:23;25.40;;;17.47;;
11829;SDS011;5972;42.134;24.718;2023-03-07T03:30:55;24.50;;;17.67;;
11829;SDS011;5972;42.134;24.718;2023-03-07T03:33:23;22.67;;;16.57;;
11829;SDS011;5972;42.134;24.718;2023-03-07T03:35:51;22.77;;;17.63;;
11829;SDS011;5972;42.134;24.718;2023-03-07T03:38:18;24.83;;;18.30;;
11829;SDS011;5972;42.134;24.718;2023-03-07T03:40:45;28.07;;;18.67;;
11829;SDS011;5972;42.134;24.718;2023-03-07T03:43:11;26.77;;;17.83;;
11829;SDS011;5972;42.134;24.718;2023-03-07T03:45:38;26.00;;;18.43;;
11829;SDS011;5972;42.134;24.718;2023-03-07T03:48:05;27.80;;;18.70;;
11829;SDS011;5972;42.134;24.718;2023-03-07T03:50:32;28.67;;;18.53;;
11829;SDS011;5972;42.134;24.718;2023-03-07T03:53:01;25.97;;;18.47;;
11829;SDS011;5972;42.134;24.718;2023-03-07T03:55:28;25.77;;;18.67;;
11829;SDS011;5972;42.134;24.718;2023-03-07T03:57:55;27.33;;;18.47;;
11829;SDS011;5972;42.134;24.718;2023-03-07T04:00:21;27.00;;;18.60;;
11829;SDS011;5972;42.134;24.718;2023-03-07T04:02:48;27.73;;;18.43;;
11829;SDS011;5972;42.134;24.718;2023-03-07T04:05:15;27.27;;;18.07;;
11829;SDS011;5972;42.134;24.718;2023-03-07T04:07:42;24.93;;;18.40;;
11829;SDS011;5972;42.134;24.718;2023-03-07T04:10:10;26.33;;;18.47;;
11829;SDS011;5972;42.134;24.718;2023-03-07T04:12:37;25.57;;;17.40;;
11829;SDS011;5972;42.134;24.718;2023-03-07T04:15:04;30.23;;;18.50;;
11829;SDS011;5972;42.134;24.718;2023-03-07T04:17:32;26.03;;;18.37;;
11829;SDS011;5972;42.134;24.718;2023-03-07T04:19:59;29.80;;;18.70;;
11829;SDS011;5972;42.134;24.718;2023-03-07T04:22:26;29.77;;;18.73;;
11829;SDS011;5972;42.134;24.718;2023-03-07T04:24:52;26.17;;;19.03;;
11829;SDS011;5972;42.134;24.718;2023-03-07T04:27:21;28.93;;;17.07;;
11829;SDS011;5972;42.134;24.718;2023-03-07T04:29:47;29.00;;;18.33;;
11829;SDS011;5972;42.134;24.718;2023-03-07T04:32:14;24.97;;;17.47;;
11829;SDS011;5972;42.134;24.718;2023-03-07T04:34:41;30.33;;;19.93;;
11829;SDS011;5972;42.134;24.718;2023-03-07T04:37:07;34.07;;;20.20;;
11829;SDS011;5972;42.134;24.718;2023-03-07T04:39:34;33.10;;;20.33;;
11829;SDS011;5972;42.134;24.718;2023-03-07T04:42:01;28.00;;;19.50;;
11829;SDS011;5972;42.134;24.718;2023-03-07T04:44:29;30.40;;;19.47;;
11829;SDS011;5972;42.134;24.718;2023-03-07T04:46:56;30.60;;;19.33;;
11829;SDS011;5972;42.134;24.718;2023-03-07T04:49:22;29.83;;;18.87;;
11829;SDS011;5972;42.134;24.718;2023-03-07T04:51:49;32.83;;;20.50;;
11829;SDS011;5972;42.134;24.718;2023-03-07T04:54:16;30.63;;;21.20;;
11829;SDS011;5972;42.134;24.718;2023-03-07T04:56:43;29.00;;;19.40;;
11829;SDS011;5972;42.134;24.718;2023-03-07T04:59:09;28.90;;;19.63;;
11829;SDS011;5972;42.134;24.718;2023-03-07T05:01:38;33.77;;;19.93;;
11829;SDS011;5972;42.134;24.718;2023-03-07T05:04:04;28.50;;;19.93;;
11829;SDS011;5972;42.134;24.718;2023-03-07T05:06:31;31.07;;;20.60;;
11829;SDS011;5972;42.134;24.718;2023-03-07T05:08:58;37.03;;;19.67;;
11829;SDS011;5972;42.134;24.718;2023-03-07T05:11:24;31.90;;;20.23;;
11829;SDS011;5972;42.134;24.718;2023-03-07T05:13:51;29.17;;;18.97;;
11829;SDS011;5972;42.134;24.718;2023-03-07T05:16:18;27.77;;;18.50;;
11829;SDS011;5972;42.134;24.718;2023-03-07T05:18:53;31.37;;;18.63;;
11829;SDS011;5972;42.134;24.718;2023-03-07T05:21:44;34.10;;;19.40;;
11829;SDS011;5972;42.134;24.718;2023-03-07T05:24:16;32.83;;;19.07;;
11829;SDS011;5972;42.134;24.718;2023-03-07T05:26:48;35.10;;;23.83;;
11829;SDS011;5972;42.134;24.718;2023-03-07T05:29:15;32.90;;;19.73;;
11829;SDS011;5972;42.134;24.718;2023-03-07T05:31:42;38.47;;;20.73;;
11829;SDS011;5972;42.134;24.718;2023-03-07T05:34:10;31.73;;;20.57;;
11829;SDS011;5972;42.134;24.718;2023-03-07T05:36:37;37.83;;;19.93;;
11829;SDS011;5972;42.134;24.718;2023-03-07T05:39:04;37.57;;;20.43;;
11829;SDS011;5972;42.134;24.718;2023-03-07T05:41:30;34.80;;;20.13;;
11829;SDS011;5972;42.134;24.718;2023-03-07T05:43:57;35.20;;;22.77;;
11829;SDS011;5972;42.134;24.718;2023-03-07T05:46:25;37.00;;;20.67;;
11829;SDS011;5972;42.134;24.718;2023-03-07T05:48:52;28.67;;;18.63;;
11829;SDS011;5972;42.134;24.718;2023-03-07T05:51:20;27.63;;;18.97;;
11829;SDS011;5972;42.134;24.718;2023-03-07T05:53:47;26.37;;;17.57;;
11829;SDS011;5972;42.134;24.718;2023-03-07T05:56:14;31.47;;;16.20;;
11829;SDS011;5972;42.134;24.718;2023-03-07T05:58:41;25.13;;;16.73;;
11829;SDS011;5972;42.134;24.718;2023-03-07T06:01:08;19.80;;;13.70;;
11829;SDS011;5972;42.134;24.718;2023-03-07T06:03:34;19.30;;;14.67;;
11829;SDS011;5972;42.134;24.718;2023-03-07T06:06:01;19.60;;;14.90;;
11829;SDS011;5972;42.134;24.718;2023-03-07T06:08:29;21.83;;;14.57;;
11829;SDS011;5972;42.134;24.718;2023-03-07T06:10:56;24.10;;;14.57;;
11829;SDS011;5972;42.134;24.718;2023-03-07T06:13:23;27.90;;;14.07;;
11829;SDS011;5972;42.134;24.718;2023-03-07T06:15:50;21.70;;;14.63;;
11829;SDS011;5972;42.134;24.718;2023-03-07T06:18:18;20.20;;;13.77;;
11829;SDS011;5972;42.134;24.718;2023-03-07T06:20:52;26.10;;;13.87;;
11829;SDS011;5972;42.134;24.718;2023-03-07T06:23:20;21.70;;;13.90;;
11829;SDS011;5972;42.134;24.718;2023-03-07T06:25:48;19.90;;;14.00;;
11829;SDS011;5972;42.134;24.718;2023-03-07T06:28:15;18.93;;;12.90;;
11829;SDS011;5972;42.134;24.718;2023-03-07T06:30:42;16.97;;;12.27;;
11829;SDS011;5972;42.134;24.718;2023-03-07T06:33:09;23.20;;;15.33;;
11829;SDS011;5972;42.134;24.718;2023-03-07T06:35:37;26.47;;;13.20;;
11829;SDS011;5972;42.134;24.718;2023-03-07T06:38:05;22.38;;;12.57;;
11829;SDS011;5972;42.134;24.718;2023-03-07T06:40:31;18.50;;;13.00;;
11829;SDS011;5972;42.134;24.718;2023-03-07T06:43:00;16.92;;;12.25;;
11829;SDS011;5972;42.134;24.718;2023-03-07T06:45:27;22.60;;;12.77;;
11829;SDS011;5972;42.134;24.718;2023-03-07T06:47:53;23.73;;;13.93;;
11829;SDS011;5972;42.134;24.718;2023-03-07T06:50:20;22.23;;;13.60;;
11829;SDS011;5972;42.134;24.718;2023-03-07T06:52:47;20.30;;;11.80;;
11829;SDS011;5972;42.134;24.718;2023-03-07T06:55:15;14.65;;;10.60;;
11829;SDS011;5972;42.134;24.718;2023-03-07T06:57:43;14.02;;;11.00;;
11829;SDS011;5972;42.134;24.718;2023-03-07T07:00:11;12.98;;;10.27;;
11829;SDS011;5972;42.134;24.718;2023-03-07T07:02:39;16.58;;;11.02;;
11829;SDS011;5972;42.134;24.718;2023-03-07T07:05:06;19.25;;;10.35;;
11829;SDS011;5972;42.134;24.718;2023-03-07T07:07:33;16.02;;;10.38;;
11829;SDS011;5972;42.134;24.718;2023-03-07T07:10:00;11.40;;;10.23;;
11829;SDS011;5972;42.134;24.718;2023-03-07T07:12:27;28.15;;;12.02;;
11829;SDS011;5972;42.134;24.718;2023-03-07T07:14:53;18.83;;;11.60;;
11829;SDS011;5972;42.134;24.718;2023-03-07T07:17:22;15.98;;;11.40;;
11829;SDS011;5972;42.134;24.718;2023-03-07T07:19:48;15.95;;;10.75;;
11829;SDS011;5972;42.134;24.718;2023-03-07T07:22:15;12.68;;;10.82;;
11829;SDS011;5972;42.134;24.718;2023-03-07T07:24:42;20.17;;;11.30;;
11829;SDS011;5972;42.134;24.718;2023-03-07T07:27:08;18.88;;;12.07;;
11829;SDS011;5972;42.134;24.718;2023-03-07T07:29:36;17.08;;;12.10;;
11829;SDS011;5972;42.134;24.718;2023-03-07T07:32:02;14.23;;;12.35;;
11829;SDS011;5972;42.134;24.718;2023-03-07T07:34:31;22.50;;;12.77;;
11829;SDS011;5972;42.134;24.718;2023-03-07T07:36:58;18.08;;;11.57;;
11829;SDS011;5972;42.134;24.718;2023-03-07T07:39:24;16.27;;;11.27;;
11829;SDS011;5972;42.134;24.718;2023-03-07T07:41:51;15.43;;;12.30;;
11829;SDS011;5972;42.134;24.718;2023-03-07T07:44:18;18.58;;;12.05;;
11829;SDS011;5972;42.134;24.718;2023-03-07T07:46:45;17.35;;;12.48;;
11829;SDS011;5972;42.134;24.718;2023-03-07T07:49:11;19.98;;;12.35;;
11829;SDS011;5972;42.134;24.718;2023-03-07T07:51:39;22.90;;;12.85;;
11829;SDS011;5972;42.134;24.718;2023-03-07T07:54:06;17.45;;;12.02;;
11829;SDS011;5972;42.134;24.718;2023-03-07T07:56:34;16.65;;;12.30;;
11829;SDS011;5972;42.134;24.718;2023-03-07T07:59:00;17.10;;;12.57;;
11829;SDS011;5972;42.134;24.718;2023-03-07T08:01:27;16.30;;;11.73;;
11829;SDS011;5972;42.134;24.718;2023-03-07T08:03:54;18.73;;;12.23;;
11829;SDS011;5972;42.134;24.718;2023-03-07T08:06:21;17.02;;;12.48;;
11829;SDS011;5972;42.134;24.718;2023-03-07T08:08:50;19.85;;;12.80;;
11829;SDS011;5972;42.134;24.718;2023-03-07T08:11:17;14.43;;;12.88;;
11829;SDS011;5972;42.134;24.718;2023-03-07T08:13:46;17.27;;;12.57;;
11829;SDS011;5972;42.134;24.718;2023-03-07T08:16:13;16.20;;;12.50;;
11829;SDS011;5972;42.134;24.718;2023-03-07T08:18:43;18.08;;;12.98;;
11829;SDS011;5972;42.134;24.718;2023-03-07T08:21:14;17.55;;;11.95;;
11829;SDS011;5972;42.134;24.718;2023-03-07T08:23:40;15.88;;;12.88;;
11829;SDS011;5972;42.134;24.718;2023-03-07T08:26:09;13.77;;;12.38;;
11829;SDS011;5972;42.134;24.718;2023-03-07T08:28:37;15.00;;;11.98;;
11829;SDS011;5972;42.134;24.718;2023-03-07T08:31:05;18.23;;;13.05;;
11829;SDS011;5972;42.134;24.718;2023-03-07T08:33:33;19.45;;;12.15;;
11829;SDS011;5972;42.134;24.718;2023-03-07T08:36:00;15.27;;;12.27;;
11829;SDS011;5972;42.134;24.718;2023-03-07T08:38:27;13.90;;;12.23;;
11829;SDS011;5972;42.134;24.718;2023-03-07T08:40:57;14.30;;;12.75;;
11829;SDS011;5972;42.134;24.718;2023-03-07T08:43:26;18.33;;;12.38;;
11829;SDS011;5972;42.134;24.718;2023-03-07T08:45:53;19.48;;;12.70;;
11829;SDS011;5972;42.134;24.718;2023-03-07T08:48:20;16.52;;;11.85;;
11829;SDS011;5972;42.134;24.718;2023-03-07T08:50:47;15.20;;;12.23;;
11829;SDS011;5972;42.134;24.718;2023-03-07T08:53:14;16.05;;;11.98;;
11829;SDS011;5972;42.134;24.718;2023-03-07T08:55:41;14.80;;;12.00;;
11829;SDS011;5972;42.134;24.718;2023-03-07T08:58:08;14.15;;;12.40;;
11829;SDS011;5972;42.134;24.718;2023-03-07T09:00:37;14.55;;;11.90;;
11829;SDS011;5972;42.134;24.718;2023-03-07T09:03:05;12.63;;;11.27;;
11829;SDS011;5972;42.134;24.718;2023-03-07T09:05:35;14.73;;;12.18;;
11829;SDS011;5972;42.134;24.718;2023-03-07T09:08:03;15.45;;;12.52;;
11829;SDS011;5972;42.134;24.718;2023-03-07T09:10:30;15.40;;;12.43;;
11829;SDS011;5972;42.134;24.718;2023-03-07T09:12:57;14.32;;;12.10;;
11829;SDS011;5972;42.134;24.718;2023-03-07T09:15:23;14.80;;;11.38;;
11829;SDS011;5972;42.134;24.718;2023-03-07T09:17:52;14.90;;;12.25;;
11829;SDS011;5972;42.134;24.718;2023-03-07T09:20:19;13.52;;;11.60;;
11829;SDS011;5972;42.134;24.718;2023-03-07T09:22:46;16.55;;;12.00;;
11829;SDS011;5972;42.134;24.718;2023-03-07T09:25:13;15.80;;;12.45;;
11829;SDS011;5972;42.134;24.718;2023-03-07T09:27:39;14.27;;;11.85;;
11829;SDS011;5972;42.134;24.718;2023-03-07T09:30:10;16.42;;;12.35;;
11829;SDS011;5972;42.134;24.718;2023-03-07T09:32:37;15.55;;;11.75;;
11829;SDS011;5972;42.134;24.718;2023-03-07T09:35:06;14.13;;;11.77;;
11829;SDS011;5972;42.134;24.718;2023-03-07T09:37:34;13.10;;;11.27;;
11829;SDS011;5972;42.134;24.718;2023-03-07T09:40:01;15.57;;;11.95;;
11829;SDS011;5972;42.134;24.718;2023-03-07T09:42:32;12.90;;;11.60;;
11829;SDS011;5972;42.134;24.718;2023-03-07T09:51:13;13.48;;;11.40;;
11829;SDS011;5972;42.134;24.718;2023-03-07T09:53:43;14.27;;;11.32;;
11829;SDS011;5972;42.134;24.718;2023-03-07T09:56:14;16.73;;;11.38;;
11829;SDS011;5972;42.134;24.718;2023-03-07T09:58:46;14.23;;;11.55;;
11829;SDS011;5972;42.134;24.718;2023-03-07T10:01:18;13.90;;;11.55;;
11829;SDS011;5972;42.134;24.718;2023-03-07T10:03:50;15.30;;;11.57;;
11829;SDS011;5972;42.134;24.718;2023-03-07T10:06:25;13.77;;;11.82;;
11829;SDS011;5972;42.134;24.718;2023-03-07T10:08:55;15.55;;;11.63;;
11829;SDS011;5972;42.134;24.718;2023-03-07T10:11:27;17.30;;;11.77;;
11829;SDS011;5972;42.134;24.718;2023-03-07T10:14:17;15.48;;;10.70;;
11829;SDS011;5972;42.134;24.718;2023-03-07T10:16:58;18.13;;;11.82;;
11829;SDS011;5972;42.134;24.718;2023-03-07T10:19:34;17.40;;;12.15;;
11829;SDS011;5972;42.134;24.718;2023-03-07T10:22:11;14.98;;;11.30;;
11829;SDS011;5972;42.134;24.718;2023-03-07T10:24:59;19.13;;;11.98;;
11829;SDS011;5972;42.134;24.718;2023-03-07T10:27:34;14.65;;;11.85;;
11829;SDS011;5972;42.134;24.718;2023-03-07T10:30:05;14.65;;;10.40;;
11829;SDS011;5972;42.134;24.718;2023-03-07T10:32:40;15.18;;;11.35;;
11829;SDS011;5972;42.134;24.718;2023-03-07T10:35:17;13.70;;;10.18;;
11829;SDS011;5972;42.134;24.718;2023-03-07T10:37:48;12.95;;;10.27;;
11829;SDS011;5972;42.134;24.718;2023-03-07T10:40:17;11.15;;;9.70;;
11829;SDS011;5972;42.134;24.718;2023-03-07T10:42:56;11.77;;;9.40;;
11829;SDS011;5972;42.134;24.718;2023-03-07T10:45:25;19.48;;;11.50;;
11829;SDS011;5972;42.134;24.718;2023-03-07T10:47:54;17.55;;;11.20;;
11829;SDS011;5972;42.134;24.718;2023-03-07T10:50:23;15.07;;;11.05;;
11829;SDS011;5972;42.134;24.718;2023-03-07T10:52:59;10.57;;;7.85;;
11829;SDS011;5972;42.134;24.718;2023-03-07T10:55:31;12.52;;;9.05;;
11829;SDS011;5972;42.134;24.718;2023-03-07T10:58:12;7.68;;;5.40;;
11829;SDS011;5972;42.134;24.718;2023-03-07T11:00:41;10.32;;;7.55;;
11829;SDS011;5972;42.134;24.718;2023-03-07T11:03:22;13.05;;;8.73;;
11829;SDS011;5972;42.134;24.718;2023-03-07T11:05:52;9.45;;;7.70;;
11829;SDS011;5972;42.134;24.718;2023-03-07T11:08:23;11.07;;;7.53;;
11829;SDS011;5972;42.134;24.718;2023-03-07T11:10:53;11.52;;;7.03;;
11829;SDS011;5972;42.134;24.718;2023-03-07T11:13:20;8.85;;;6.30;;
11829;SDS011;5972;42.134;24.718;2023-03-07T11:15:48;8.45;;;7.18;;
11829;SDS011;5972;42.134;24.718;2023-03-07T11:18:24;9.23;;;7.82;;
11829;SDS011;5972;42.134;24.718;2023-03-07T11:20:52;13.48;;;8.55;;
11829;SDS011;5972;42.134;24.718;2023-03-07T11:23:19;12.52;;;8.18;;
11829;SDS011;5972;42.134;24.718;2023-03-07T11:25:55;8.65;;;7.57;;
11829;SDS011;5972;42.134;24.718;2023-03-07T11:28:27;11.57;;;8.82;;
11829;SDS011;5972;42.134;24.718;2023-03-07T11:30:57;11.18;;;9.20;;
11829;SDS011;5972;42.134;24.718;2023-03-07T11:33:39;15.88;;;8.43;;
11829;SDS011;5972;42.134;24.718;2023-03-07T11:36:12;11.60;;;6.93;;
11829;SDS011;5972;42.134;24.718;2023-03-07T11:38:46;12.10;;;7.30;;
11829;SDS011;5972;42.134;24.718;2023-03-07T11:41:23;11.55;;;6.55;;
11829;SDS011;5972;42.134;24.718;2023-03-07T11:43:57;7.72;;;6.93;;
11829;SDS011;5972;42.134;24.718;2023-03-07T11:46:34;11.98;;;7.50;;
11829;SDS011;5972;42.134;24.718;2023-03-07T11:49:12;11.18;;;7.72;;
11829;SDS011;5972;42.134;24.718;2023-03-07T11:51:53;13.45;;;8.88;;
11829;SDS011;5972;42.134;24.718;2023-03-07T11:54:33;14.35;;;9.13;;
11829;SDS011;5972;42.134;24.718;2023-03-07T11:57:10;10.30;;;8.30;;
11829;SDS011;5972;42.134;24.718;2023-03-07T11:59:51;15.38;;;9.00;;
11829;SDS011;5972;42.134;24.718;2023-03-07T12:02:40;9.55;;;6.78;;
11829;SDS011;5972;42.134;24.718;2023-03-07T12:05:31;7.18;;;6.22;;
11829;SDS011;5972;42.134;24.718;2023-03-07T12:08:16;7.07;;;5.80;;
11829;SDS011;5972;42.134;24.718;2023-03-07T12:11:03;9.25;;;6.18;;
11829;SDS011;5972;42.134;24.718;2023-03-07T12:13:39;7.15;;;6.28;;
11829;SDS011;5972;42.134;24.718;2023-03-07T12:16:19;6.93;;;5.20;;
11829;SDS011;5972;42.134;24.718;2023-03-07T12:18:59;5.82;;;4.93;;
11829;SDS011;5972;42.134;24.718;2023-03-07T12:24:51;10.13;;;5.50;;
11829;SDS011;5972;42.134;24.718;2023-03-07T12:27:31;6.72;;;5.10;;
11829;SDS011;5972;42.134;24.718;2023-03-07T12:30:01;9.63;;;4.68;;
11829;SDS011;5972;42.134;24.718;2023-03-07T12:32:32;6.70;;;5.30;;
11829;SDS011;5972;42.134;24.718;2023-03-07T12:35:02;8.63;;;5.53;;
11829;SDS011;5972;42.134;24.718;2023-03-07T12:37:36;8.25;;;4.78;;
11829;SDS011;5972;42.134;24.718;2023-03-07T12:40:09;7.03;;;4.60;;
11829;SDS011;5972;42.134;24.718;2023-03-07T12:42:45;6.50;;;5.13;;
11829;SDS011;5972;42.134;24.718;2023-03-07T12:45:19;6.50;;;4.60;;
11829;SDS011;5972;42.134;24.718;2023-03-07T12:47:54;8.05;;;5.65;;
11829;SDS011;5972;42.134;24.718;2023-03-07T12:50:28;10.45;;;5.78;;
11829;SDS011;5972;42.134;24.718;2023-03-07T12:53:03;16.92;;;5.85;;
11829;SDS011;5972;42.134;24.718;2023-03-07T12:55:36;9.95;;;5.80;;
11829;SDS011;5972;42.134;24.718;2023-03-07T12:58:08;10.02;;;5.82;;
11829;SDS011;5972;42.134;24.718;2023-03-07T13:00:41;7.47;;;5.07;;
11829;SDS011;5972;42.134;24.718;2023-03-07T13:03:14;9.82;;;4.60;;
11829;SDS011;5972;42.134;24.718;2023-03-07T13:05:47;5.35;;;3.22;;
11829;SDS011;5972;42.134;24.718;2023-03-07T13:08:17;9.73;;;4.65;;
11829;SDS011;5972;42.134;24.718;2023-03-07T13:10:48;6.85;;;4.25;;
11829;SDS011;5972;42.134;24.718;2023-03-07T13:16:38;4.68;;;3.45;;
11829;SDS011;5972;42.134;24.718;2023-03-07T13:25:45;5.53;;;3.90;;
11829;SDS011;5972;42.134;24.718;2023-03-07T13:55:22;7.10;;;4.85;;
11829;SDS011;5972;42.134;24.718;2023-03-07T13:57:51;7.05;;;4.55;;
11829;SDS011;5972;42.134;24.718;2023-03-07T14:00:23;8.35;;;4.45;;
11829;SDS011;5972;42.134;24.718;2023-03-07T14:03:00;6.93;;;4.38;;
11829;SDS011;5972;42.134;24.718;2023-03-07T14:05:30;5.03;;;4.28;;
11829;SDS011;5972;42.134;24.718;2023-03-07T14:07:58;12.35;;;3.70;;
11829;SDS011;5972;42.134;24.718;2023-03-07T14:10:27;6.25;;;3.40;;
11829;SDS011;5972;42.134;24.718;2023-03-07T14:16:03;6.03;;;3.72;;
11829;SDS011;5972;42.134;24.718;2023-03-07T14:18:49;10.30;;;3.75;;
11829;SDS011;5972;42.134;24.718;2023-03-07T14:21:27;8.52;;;4.10;;
11829;SDS011;5972;42.134;24.718;2023-03-07T14:27:02;9.38;;;4.57;;
11829;SDS011;5972;42.134;24.718;2023-03-07T14:29:30;8.13;;;3.90;;
11829;SDS011;5972;42.134;24.718;2023-03-07T14:31:57;7.13;;;4.22;;
11829;SDS011;5972;42.134;24.718;2023-03-07T14:34:27;8.82;;;5.63;;
11829;SDS011;5972;42.134;24.718;2023-03-07T14:36:56;6.00;;;4.03;;
11829;SDS011;5972;42.134;24.718;2023-03-07T14:39:27;8.63;;;5.07;;
11829;SDS011;5972;42.134;24.718;2023-03-07T14:42:04;9.80;;;4.63;;
11829;SDS011;5972;42.134;24.718;2023-03-07T14:47:35;9.57;;;6.25;;
11829;SDS011;5972;42.134;24.718;2023-03-07T14:50:14;9.30;;;5.45;;
11829;SDS011;5972;42.134;24.718;2023-03-07T14:52:44;5.82;;;4.70;;
11829;SDS011;5972;42.134;24.718;2023-03-07T14:55:14;8.90;;;4.47;;
11829;SDS011;5972;42.134;24.718;2023-03-07T14:57:43;9.63;;;5.47;;
11829;SDS011;5972;42.134;24.718;2023-03-07T15:00:21;7.30;;;5.70;;
11829;SDS011;5972;42.134;24.718;2023-03-07T15:02:50;6.53;;;4.57;;
11829;SDS011;5972;42.134;24.718;2023-03-07T15:05:20;6.57;;;5.88;;
11829;SDS011;5972;42.134;24.718;2023-03-07T15:07:48;5.95;;;5.35;;
11829;SDS011;5972;42.134;24.718;2023-03-07T15:10:16;9.40;;;6.97;;
11829;SDS011;5972;42.134;24.718;2023-03-07T15:12:47;9.20;;;4.70;;
11829;SDS011;5972;42.134;24.718;2023-03-07T15:15:22;8.73;;;6.65;;
11829;SDS011;5972;42.134;24.718;2023-03-07T15:17:54;11.73;;;6.18;;
11829;SDS011;5972;42.134;24.718;2023-03-07T15:20:26;11.63;;;5.90;;
11829;SDS011;5972;42.134;24.718;2023-03-07T15:22:58;7.22;;;5.10;;
11829;SDS011;5972;42.134;24.718;2023-03-07T15:25:28;6.32;;;4.88;;
11829;SDS011;5972;42.134;24.718;2023-03-07T15:27:56;9.95;;;4.90;;
11829;SDS011;5972;42.134;24.718;2023-03-07T15:30:26;7.35;;;5.63;;
11829;SDS011;5972;42.134;24.718;2023-03-07T15:33:11;6.82;;;5.25;;
11829;SDS011;5972;42.134;24.718;2023-03-07T15:35:42;8.20;;;5.82;;
11829;SDS011;5972;42.134;24.718;2023-03-07T15:38:13;16.92;;;5.88;;
11829;SDS011;5972;42.134;24.718;2023-03-07T15:40:43;16.83;;;7.40;;